sensor_id;sensor_type;location;lat;lon;timestamp;P1;durP1;ratioP1;P2;durP2;ratioP2
11269;SDS011;5692;48.956;9.200;2023-04-01T00:01:20;129.68;;;123.45;;
11269;SDS011;5692;48.956;9.200;2023-04-01T00:03:46;139.02;;;132.35;;
11269;SDS011;5692;48.956;9.200;2023-04-01T00:06:13;139.07;;;132.40;;
11269;SDS011;5692;48.956;9.200;2023-04-01T00:08:40;133.85;;;127.43;;
11269;SDS011;5692;48.956;9.200;2023-04-01T00:11:06;129.80;;;123.57;;
11269;SDS011;5692;48.956;9.200;2023-04-01T00:13:32;127.78;;;121.65;;
11269;SDS011;5692;48.956;9.200;2023-04-01T00:15:59;125.38;;;119.38;;
11269;SDS011;5692;48.956;9.200;2023-04-01T00:18:26;129.95;;;123.72;;
11269;SDS011;5692;48.956;9.200;2023-04-01T00:20:53;130.13;;;123.88;;
11269;SDS011;5692;48.956;9.200;2023-04-01T00:23:19;123.40;;;117.50;;
11269;SDS011;5692;48.956;9.200;2023-04-01T00:25:46;127.72;;;121.57;;
11269;SDS011;5692;48.956;9.200;2023-04-01T00:28:14;129.50;;;123.30;;
11269;SDS011;5692;48.956;9.200;2023-04-01T00:30:40;121.68;;;115.82;;
11269;SDS011;5692;48.956;9.200;2023-04-01T00:33:07;131.60;;;125.28;;
11269;SDS011;5692;48.956;9.200;2023-04-01T00:35:33;121.70;;;115.85;;
11269;SDS011;5692;48.956;9.200;2023-04-01T00:37:59;132.63;;;126.25;;
11269;SDS011;5692;48.956;9.200;2023-04-01T00:40:29;132.88;;;126.47;;
11269;SDS011;5692;48.956;9.200;2023-04-01T00:42:55;133.85;;;127.43;;
11269;SDS011;5692;48.956;9.200;2023-04-01T00:45:32;126.35;;;120.28;;
11269;SDS011;5692;48.956;9.200;2023-04-01T00:47:59;133.38;;;126.97;;
11269;SDS011;5692;48.956;9.200;2023-04-01T00:50:30;139.88;;;133.18;;
11269;SDS011;5692;48.956;9.200;2023-04-01T00:52:57;138.82;;;132.15;;
11269;SDS011;5692;48.956;9.200;2023-04-01T00:55:26;139.73;;;133.02;;
11269;SDS011;5692;48.956;9.200;2023-04-01T00:57:53;135.10;;;128.63;;
11269;SDS011;5692;48.956;9.200;2023-04-01T01:00:22;136.00;;;129.48;;
11269;SDS011;5692;48.956;9.200;2023-04-01T01:02:48;135.93;;;129.43;;
11269;SDS011;5692;48.956;9.200;2023-04-01T01:05:16;143.75;;;136.85;;
11269;SDS011;5692;48.956;9.200;2023-04-01T01:10:18;131.60;;;125.30;;
11269;SDS011;5692;48.956;9.200;2023-04-01T01:12:51;133.52;;;127.13;;
11269;SDS011;5692;48.956;9.200;2023-04-01T01:15:20;139.48;;;132.77;;
11269;SDS011;5692;48.956;9.200;2023-04-01T01:17:49;135.70;;;129.20;;
11269;SDS011;5692;48.956;9.200;2023-04-01T01:28:13;145.93;;;138.93;;
11269;SDS011;5692;48.956;9.200;2023-04-01T01:35:55;143.30;;;136.43;;
11269;SDS011;5692;48.956;9.200;2023-04-01T01:38:24;141.75;;;134.95;;
11269;SDS011;5692;48.956;9.200;2023-04-01T01:40:52;133.15;;;126.75;;
11269;SDS011;5692;48.956;9.200;2023-04-01T01:43:25;131.75;;;125.43;;
11269;SDS011;5692;48.956;9.200;2023-04-01T01:45:54;149.68;;;142.50;;
11269;SDS011;5692;48.956;9.200;2023-04-01T01:48:21;140.80;;;134.02;;
11269;SDS011;5692;48.956;9.200;2023-04-01T01:50:49;137.20;;;130.60;;
11269;SDS011;5692;48.956;9.200;2023-04-01T01:53:16;132.52;;;126.13;;
11269;SDS011;5692;48.956;9.200;2023-04-01T01:55:45;136.05;;;129.52;;
11269;SDS011;5692;48.956;9.200;2023-04-01T01:58:33;128.32;;;122.15;;
11269;SDS011;5692;48.956;9.200;2023-04-01T02:01:00;143.98;;;137.07;;
11269;SDS011;5692;48.956;9.200;2023-04-01T02:03:28;134.45;;;128.00;;
11269;SDS011;5692;48.956;9.200;2023-04-01T02:05:56;129.07;;;122.88;;
11269;SDS011;5692;48.956;9.200;2023-04-01T02:08:26;134.52;;;128.07;;
11269;SDS011;5692;48.956;9.200;2023-04-01T02:11:04;122.82;;;116.93;;
11269;SDS011;5692;48.956;9.200;2023-04-01T02:13:36;124.85;;;118.85;;
11269;SDS011;5692;48.956;9.200;2023-04-01T02:16:05;129.63;;;123.43;;
11269;SDS011;5692;48.956;9.200;2023-04-01T02:18:33;121.93;;;116.07;;
11269;SDS011;5692;48.956;9.200;2023-04-01T02:21:02;128.13;;;121.97;;
11269;SDS011;5692;48.956;9.200;2023-04-01T02:23:30;132.02;;;125.72;;
11269;SDS011;5692;48.956;9.200;2023-04-01T02:25:58;134.27;;;127.82;;
11269;SDS011;5692;48.956;9.200;2023-04-01T02:28:26;129.65;;;123.45;;
11269;SDS011;5692;48.956;9.200;2023-04-01T02:30:53;129.55;;;123.35;;
11269;SDS011;5692;48.956;9.200;2023-04-01T02:33:19;129.48;;;123.25;;
11269;SDS011;5692;48.956;9.200;2023-04-01T02:35:46;131.65;;;125.32;;
11269;SDS011;5692;48.956;9.200;2023-04-01T02:38:12;134.95;;;128.45;;
11269;SDS011;5692;48.956;9.200;2023-04-01T02:40:59;146.70;;;139.65;;
11269;SDS011;5692;48.956;9.200;2023-04-01T02:43:26;130.82;;;124.55;;
11269;SDS011;5692;48.956;9.200;2023-04-01T02:45:55;137.93;;;131.32;;
11269;SDS011;5692;48.956;9.200;2023-04-01T02:48:21;143.80;;;136.90;;
11269;SDS011;5692;48.956;9.200;2023-04-01T02:50:47;145.48;;;138.48;;
11269;SDS011;5692;48.956;9.200;2023-04-01T02:53:17;130.73;;;124.45;;
11269;SDS011;5692;48.956;9.200;2023-04-01T02:55:43;136.68;;;130.07;;
11269;SDS011;5692;48.956;9.200;2023-04-01T02:58:10;131.90;;;125.60;;
11269;SDS011;5692;48.956;9.200;2023-04-01T03:00:36;128.43;;;122.28;;
11269;SDS011;5692;48.956;9.200;2023-04-01T03:03:03;139.60;;;132.90;;
11269;SDS011;5692;48.956;9.200;2023-04-01T03:05:29;131.05;;;124.75;;
11269;SDS011;5692;48.956;9.200;2023-04-01T03:07:55;132.45;;;126.10;;
11269;SDS011;5692;48.956;9.200;2023-04-01T03:10:22;133.55;;;127.15;;
11269;SDS011;5692;48.956;9.200;2023-04-01T03:12:48;129.10;;;122.90;;
11269;SDS011;5692;48.956;9.200;2023-04-01T03:15:14;134.57;;;128.10;;
11269;SDS011;5692;48.956;9.200;2023-04-01T03:17:41;137.48;;;130.88;;
11269;SDS011;5692;48.956;9.200;2023-04-01T03:20:08;125.80;;;119.78;;
11269;SDS011;5692;48.956;9.200;2023-04-01T03:22:36;126.90;;;120.80;;
11269;SDS011;5692;48.956;9.200;2023-04-01T03:25:02;116.50;;;110.90;;
11269;SDS011;5692;48.956;9.200;2023-04-01T03:27:29;130.15;;;123.90;;
11269;SDS011;5692;48.956;9.200;2023-04-01T03:29:55;135.82;;;129.30;;
11269;SDS011;5692;48.956;9.200;2023-04-01T03:32:21;127.05;;;120.95;;
11269;SDS011;5692;48.956;9.200;2023-04-01T03:34:47;135.00;;;128.50;;
11269;SDS011;5692;48.956;9.200;2023-04-01T03:37:14;138.23;;;131.60;;
11269;SDS011;5692;48.956;9.200;2023-04-01T03:39:40;134.45;;;128.00;;
11269;SDS011;5692;48.956;9.200;2023-04-01T03:42:06;143.98;;;137.07;;
11269;SDS011;5692;48.956;9.200;2023-04-01T03:44:32;130.45;;;124.20;;
11269;SDS011;5692;48.956;9.200;2023-04-01T03:46:59;141.13;;;134.35;;
11269;SDS011;5692;48.956;9.200;2023-04-01T03:49:25;137.45;;;130.85;;
11269;SDS011;5692;48.956;9.200;2023-04-01T03:51:52;133.40;;;127.00;;
11269;SDS011;5692;48.956;9.200;2023-04-01T03:54:18;130.48;;;124.22;;
11269;SDS011;5692;48.956;9.200;2023-04-01T03:56:45;126.93;;;120.82;;
11269;SDS011;5692;48.956;9.200;2023-04-01T03:59:11;130.60;;;124.30;;
11269;SDS011;5692;48.956;9.200;2023-04-01T04:01:38;132.50;;;126.13;;
11269;SDS011;5692;48.956;9.200;2023-04-01T04:04:04;128.50;;;122.30;;
11269;SDS011;5692;48.956;9.200;2023-04-01T04:06:31;133.30;;;126.90;;
11269;SDS011;5692;48.956;9.200;2023-04-01T04:08:58;133.07;;;126.68;;
11269;SDS011;5692;48.956;9.200;2023-04-01T04:11:25;140.95;;;134.18;;
11269;SDS011;5692;48.956;9.200;2023-04-01T04:13:51;137.82;;;131.23;;
11269;SDS011;5692;48.956;9.200;2023-04-01T04:16:17;124.63;;;118.65;;
11269;SDS011;5692;48.956;9.200;2023-04-01T04:18:44;128.70;;;122.50;;
11269;SDS011;5692;48.956;9.200;2023-04-01T04:21:13;132.90;;;126.50;;
11269;SDS011;5692;48.956;9.200;2023-04-01T04:23:40;128.05;;;121.90;;
11269;SDS011;5692;48.956;9.200;2023-04-01T04:26:07;137.85;;;131.25;;
11269;SDS011;5692;48.956;9.200;2023-04-01T04:28:34;137.15;;;130.55;;
11269;SDS011;5692;48.956;9.200;2023-04-01T04:31:00;134.27;;;127.85;;
11269;SDS011;5692;48.956;9.200;2023-04-01T04:33:27;125.70;;;119.70;;
11269;SDS011;5692;48.956;9.200;2023-04-01T04:35:57;126.45;;;120.35;;
11269;SDS011;5692;48.956;9.200;2023-04-01T04:38:23;123.15;;;117.25;;
11269;SDS011;5692;48.956;9.200;2023-04-01T04:40:50;128.02;;;121.88;;
11269;SDS011;5692;48.956;9.200;2023-04-01T04:43:17;128.85;;;122.65;;
11269;SDS011;5692;48.956;9.200;2023-04-01T04:45:44;122.97;;;117.07;;
11269;SDS011;5692;48.956;9.200;2023-04-01T04:48:11;121.90;;;116.05;;
11269;SDS011;5692;48.956;9.200;2023-04-01T04:50:44;123.38;;;117.47;;
11269;SDS011;5692;48.956;9.200;2023-04-01T04:53:13;127.93;;;121.80;;
11269;SDS011;5692;48.956;9.200;2023-04-01T04:55:46;132.15;;;125.80;;
11269;SDS011;5692;48.956;9.200;2023-04-01T04:58:15;121.85;;;116.00;;
11269;SDS011;5692;48.956;9.200;2023-04-01T05:00:41;122.65;;;116.75;;
11269;SDS011;5692;48.956;9.200;2023-04-01T05:03:08;126.97;;;120.88;;
11269;SDS011;5692;48.956;9.200;2023-04-01T05:05:37;130.27;;;124.03;;
11269;SDS011;5692;48.956;9.200;2023-04-01T05:08:03;112.63;;;107.22;;
11269;SDS011;5692;48.956;9.200;2023-04-01T05:10:30;123.78;;;117.85;;
11269;SDS011;5692;48.956;9.200;2023-04-01T05:12:56;132.30;;;125.95;;
11269;SDS011;5692;48.956;9.200;2023-04-01T05:15:23;120.93;;;115.13;;
11269;SDS011;5692;48.956;9.200;2023-04-01T05:17:50;121.13;;;115.32;;
11269;SDS011;5692;48.956;9.200;2023-04-01T05:20:16;120.65;;;114.88;;
11269;SDS011;5692;48.956;9.200;2023-04-01T05:22:42;124.50;;;118.50;;
11269;SDS011;5692;48.956;9.200;2023-04-01T05:25:09;130.10;;;123.90;;
11269;SDS011;5692;48.956;9.200;2023-04-01T05:27:35;123.95;;;118.00;;
11269;SDS011;5692;48.956;9.200;2023-04-01T05:30:04;123.88;;;117.93;;
11269;SDS011;5692;48.956;9.200;2023-04-01T05:32:31;125.28;;;119.28;;
11269;SDS011;5692;48.956;9.200;2023-04-01T05:34:57;124.60;;;118.60;;
11269;SDS011;5692;48.956;9.200;2023-04-01T05:37:23;125.13;;;119.13;;
11269;SDS011;5692;48.956;9.200;2023-04-01T05:39:50;127.25;;;121.15;;
11269;SDS011;5692;48.956;9.200;2023-04-01T05:42:19;118.55;;;112.85;;
11269;SDS011;5692;48.956;9.200;2023-04-01T05:44:45;127.78;;;121.68;;
11269;SDS011;5692;48.956;9.200;2023-04-01T05:47:11;127.35;;;121.25;;
11269;SDS011;5692;48.956;9.200;2023-04-01T05:49:38;123.75;;;117.82;;
11269;SDS011;5692;48.956;9.200;2023-04-01T05:52:04;127.68;;;121.57;;
11269;SDS011;5692;48.956;9.200;2023-04-01T05:54:30;124.05;;;118.10;;
11269;SDS011;5692;48.956;9.200;2023-04-01T05:56:56;119.72;;;113.97;;
11269;SDS011;5692;48.956;9.200;2023-04-01T05:59:23;128.93;;;122.72;;
11269;SDS011;5692;48.956;9.200;2023-04-01T06:01:49;132.00;;;125.70;;
11269;SDS011;5692;48.956;9.200;2023-04-01T06:04:16;123.10;;;117.20;;
11269;SDS011;5692;48.956;9.200;2023-04-01T06:06:43;131.82;;;125.50;;
11269;SDS011;5692;48.956;9.200;2023-04-01T06:09:16;124.20;;;118.20;;
11269;SDS011;5692;48.956;9.200;2023-04-01T06:11:46;124.13;;;118.15;;
11269;SDS011;5692;48.956;9.200;2023-04-01T06:19:28;126.93;;;120.82;;
11269;SDS011;5692;48.956;9.200;2023-04-01T06:35:51;122.85;;;116.95;;
11269;SDS011;5692;48.956;9.200;2023-04-01T06:38:17;135.60;;;129.10;;
11269;SDS011;5692;48.956;9.200;2023-04-01T06:51:28;134.43;;;127.97;;
11269;SDS011;5692;48.956;9.200;2023-04-01T06:54:09;137.68;;;131.07;;
11269;SDS011;5692;48.956;9.200;2023-04-01T06:56:37;133.32;;;126.93;;
11269;SDS011;5692;48.956;9.200;2023-04-01T06:59:10;138.43;;;131.80;;
11269;SDS011;5692;48.956;9.200;2023-04-01T07:01:42;139.60;;;132.90;;
11269;SDS011;5692;48.956;9.200;2023-04-01T07:04:15;134.18;;;127.75;;
11269;SDS011;5692;48.956;9.200;2023-04-01T07:07:04;135.52;;;129.02;;
11269;SDS011;5692;48.956;9.200;2023-04-01T07:09:32;141.95;;;135.15;;
11269;SDS011;5692;48.956;9.200;2023-04-01T07:12:02;136.43;;;129.88;;
11269;SDS011;5692;48.956;9.200;2023-04-01T07:14:33;140.98;;;134.23;;
11269;SDS011;5692;48.956;9.200;2023-04-01T07:17:22;138.50;;;131.88;;
11269;SDS011;5692;48.956;9.200;2023-04-01T07:19:52;130.10;;;123.85;;
11269;SDS011;5692;48.956;9.200;2023-04-01T07:25:14;137.95;;;131.35;;
11269;SDS011;5692;48.956;9.200;2023-04-01T07:27:42;132.30;;;125.95;;
11269;SDS011;5692;48.956;9.200;2023-04-01T07:30:19;139.32;;;132.63;;
11269;SDS011;5692;48.956;9.200;2023-04-01T07:32:59;142.90;;;136.05;;
11269;SDS011;5692;48.956;9.200;2023-04-01T07:38:09;138.02;;;131.43;;
11269;SDS011;5692;48.956;9.200;2023-04-01T07:40:48;130.18;;;123.93;;
11269;SDS011;5692;48.956;9.200;2023-04-01T07:51:01;124.25;;;118.30;;
11269;SDS011;5692;48.956;9.200;2023-04-01T07:53:31;140.93;;;134.15;;
11269;SDS011;5692;48.956;9.200;2023-04-01T08:08:49;128.52;;;122.32;;
11269;SDS011;5692;48.956;9.200;2023-04-01T08:14:24;146.30;;;139.30;;
11269;SDS011;5692;48.956;9.200;2023-04-01T08:21:51;139.85;;;133.15;;
11269;SDS011;5692;48.956;9.200;2023-04-01T08:27:06;145.52;;;138.52;;
11269;SDS011;5692;48.956;9.200;2023-04-01T08:29:47;142.00;;;135.20;;
11269;SDS011;5692;48.956;9.200;2023-04-01T08:32:16;134.18;;;127.78;;
11269;SDS011;5692;48.956;9.200;2023-04-01T08:34:45;140.55;;;133.82;;
11269;SDS011;5692;48.956;9.200;2023-04-01T08:37:21;134.48;;;128.00;;
11269;SDS011;5692;48.956;9.200;2023-04-01T08:39:48;141.50;;;134.70;;
11269;SDS011;5692;48.956;9.200;2023-04-01T08:45:06;139.25;;;132.55;;
11269;SDS011;5692;48.956;9.200;2023-04-01T08:47:42;142.38;;;135.55;;
11269;SDS011;5692;48.956;9.200;2023-04-01T08:57:56;141.00;;;134.20;;
11269;SDS011;5692;48.956;9.200;2023-04-01T09:10:49;132.95;;;126.57;;
11269;SDS011;5692;48.956;9.200;2023-04-01T09:18:45;136.85;;;130.27;;
11269;SDS011;5692;48.956;9.200;2023-04-01T09:21:24;132.32;;;125.97;;
11269;SDS011;5692;48.956;9.200;2023-04-01T09:31:42;126.53;;;120.43;;
11269;SDS011;5692;48.956;9.200;2023-04-01T09:36:46;127.47;;;121.38;;
11269;SDS011;5692;48.956;9.200;2023-04-01T09:42:06;131.35;;;125.05;;
11269;SDS011;5692;48.956;9.200;2023-04-01T09:58:22;133.93;;;127.53;;
11269;SDS011;5692;48.956;9.200;2023-04-01T10:17:21;150.00;;;142.80;;
11269;SDS011;5692;48.956;9.200;2023-04-01T10:22:37;153.30;;;145.95;;
11269;SDS011;5692;48.956;9.200;2023-04-01T10:57:15;138.15;;;131.55;;
11269;SDS011;5692;48.956;9.200;2023-04-01T11:07:45;149.68;;;142.50;;
11269;SDS011;5692;48.956;9.200;2023-04-01T11:13:04;150.63;;;143.43;;
11269;SDS011;5692;48.956;9.200;2023-04-01T11:18:31;150.55;;;143.32;;
11269;SDS011;5692;48.956;9.200;2023-04-01T11:24:33;153.52;;;146.15;;
11269;SDS011;5692;48.956;9.200;2023-04-01T11:37:13;154.18;;;146.77;;
11269;SDS011;5692;48.956;9.200;2023-04-01T11:42:34;145.95;;;138.95;;
11269;SDS011;5692;48.956;9.200;2023-04-01T11:52:55;148.88;;;141.75;;
11269;SDS011;5692;48.956;9.200;2023-04-01T12:03:18;152.30;;;145.00;;
11269;SDS011;5692;48.956;9.200;2023-04-01T12:10:57;149.77;;;142.57;;
11269;SDS011;5692;48.956;9.200;2023-04-01T12:15:59;146.32;;;139.30;;
11269;SDS011;5692;48.956;9.200;2023-04-01T12:26:06;149.32;;;142.15;;
11269;SDS011;5692;48.956;9.200;2023-04-01T12:31:04;149.30;;;142.10;;
11269;SDS011;5692;48.956;9.200;2023-04-01T12:36:10;156.35;;;148.85;;
11269;SDS011;5692;48.956;9.200;2023-04-01T12:44:16;151.55;;;144.27;;
11269;SDS011;5692;48.956;9.200;2023-04-01T12:47:00;141.73;;;134.93;;
11269;SDS011;5692;48.956;9.200;2023-04-01T13:07:08;149.35;;;142.20;;
11269;SDS011;5692;48.956;9.200;2023-04-01T13:09:45;150.40;;;143.20;;
11269;SDS011;5692;48.956;9.200;2023-04-01T13:25:06;157.05;;;149.55;;
11269;SDS011;5692;48.956;9.200;2023-04-01T13:35:41;149.50;;;142.30;;
11269;SDS011;5692;48.956;9.200;2023-04-01T13:40:43;149.45;;;142.27;;
11269;SDS011;5692;48.956;9.200;2023-04-01T13:43:16;141.90;;;135.10;;
11269;SDS011;5692;48.956;9.200;2023-04-01T13:48:33;145.10;;;138.13;;
11269;SDS011;5692;48.956;9.200;2023-04-01T13:54:05;144.82;;;137.88;;
11269;SDS011;5692;48.956;9.200;2023-04-01T14:09:45;150.82;;;143.63;;
11269;SDS011;5692;48.956;9.200;2023-04-01T14:15:14;135.05;;;128.55;;
11269;SDS011;5692;48.956;9.200;2023-04-01T14:20:38;133.75;;;127.35;;
11269;SDS011;5692;48.956;9.200;2023-04-01T14:31:11;128.30;;;122.10;;
11269;SDS011;5692;48.956;9.200;2023-04-01T14:33:43;129.90;;;123.70;;
11269;SDS011;5692;48.956;9.200;2023-04-01T14:50:10;149.75;;;142.55;;
11269;SDS011;5692;48.956;9.200;2023-04-01T14:52:30;150.43;;;143.23;;
11269;SDS011;5692;48.956;9.200;2023-04-01T14:54:59;146.45;;;139.45;;
11269;SDS011;5692;48.956;9.200;2023-04-01T15:00:13;145.38;;;138.40;;
11269;SDS011;5692;48.956;9.200;2023-04-01T15:02:48;139.20;;;132.50;;
11269;SDS011;5692;48.956;9.200;2023-04-01T15:31:20;147.55;;;140.45;;
11269;SDS011;5692;48.956;9.200;2023-04-01T15:39:13;147.52;;;140.43;;
11269;SDS011;5692;48.956;9.200;2023-04-01T15:44:33;136.38;;;129.82;;
11269;SDS011;5692;48.956;9.200;2023-04-01T15:47:06;144.15;;;137.25;;
11269;SDS011;5692;48.956;9.200;2023-04-01T15:49:43;140.60;;;133.85;;
11269;SDS011;5692;48.956;9.200;2023-04-01T15:52:16;156.40;;;148.90;;
11269;SDS011;5692;48.956;9.200;2023-04-01T16:02:35;143.38;;;136.48;;
11269;SDS011;5692;48.956;9.200;2023-04-01T16:07:42;147.85;;;140.75;;
11269;SDS011;5692;48.956;9.200;2023-04-01T16:15:33;146.43;;;139.43;;
11269;SDS011;5692;48.956;9.200;2023-04-01T16:18:21;138.20;;;131.60;;
11269;SDS011;5692;48.956;9.200;2023-04-01T16:23:20;144.38;;;137.45;;
11269;SDS011;5692;48.956;9.200;2023-04-01T16:25:51;134.65;;;128.20;;
11269;SDS011;5692;48.956;9.200;2023-04-01T16:28:40;137.35;;;130.75;;
11269;SDS011;5692;48.956;9.200;2023-04-01T16:36:22;146.77;;;139.75;;
11269;SDS011;5692;48.956;9.200;2023-04-01T16:38:54;139.88;;;133.18;;
11269;SDS011;5692;48.956;9.200;2023-04-01T16:41:31;141.43;;;134.63;;
11269;SDS011;5692;48.956;9.200;2023-04-01T16:44:08;143.20;;;136.30;;
11269;SDS011;5692;48.956;9.200;2023-04-01T16:46:50;141.93;;;135.13;;
11269;SDS011;5692;48.956;9.200;2023-04-01T16:49:33;136.80;;;130.23;;
11269;SDS011;5692;48.956;9.200;2023-04-01T16:52:11;137.05;;;130.48;;
11269;SDS011;5692;48.956;9.200;2023-04-01T16:54:51;141.93;;;135.13;;
11269;SDS011;5692;48.956;9.200;2023-04-01T17:00:30;133.07;;;126.68;;
11269;SDS011;5692;48.956;9.200;2023-04-01T17:03:13;136.50;;;129.95;;
11269;SDS011;5692;48.956;9.200;2023-04-01T17:13:46;133.52;;;127.13;;
11269;SDS011;5692;48.956;9.200;2023-04-01T17:21:18;128.55;;;122.35;;
11269;SDS011;5692;48.956;9.200;2023-04-01T17:23:59;132.10;;;125.75;;
11269;SDS011;5692;48.956;9.200;2023-04-01T17:31:45;130.50;;;124.22;;
11269;SDS011;5692;48.956;9.200;2023-04-01T17:45:16;134.73;;;128.23;;
11269;SDS011;5692;48.956;9.200;2023-04-01T17:47:58;146.02;;;139.02;;
11269;SDS011;5692;48.956;9.200;2023-04-01T17:50:30;145.23;;;138.25;;
11269;SDS011;5692;48.956;9.200;2023-04-01T18:16:04;147.38;;;140.32;;
11269;SDS011;5692;48.956;9.200;2023-04-01T18:22:15;142.82;;;135.98;;
11269;SDS011;5692;48.956;9.200;2023-04-01T18:26:47;141.70;;;134.90;;
11269;SDS011;5692;48.956;9.200;2023-04-01T18:35:00;143.75;;;136.85;;
11269;SDS011;5692;48.956;9.200;2023-04-01T18:37:32;130.45;;;124.20;;
11269;SDS011;5692;48.956;9.200;2023-04-01T18:40:15;136.85;;;130.27;;
11269;SDS011;5692;48.956;9.200;2023-04-01T18:42:53;147.40;;;140.35;;
11269;SDS011;5692;48.956;9.200;2023-04-01T18:53:24;141.80;;;135.00;;
11269;SDS011;5692;48.956;9.200;2023-04-01T18:55:56;139.05;;;132.35;;
11269;SDS011;5692;48.956;9.200;2023-04-01T18:58:24;135.30;;;128.80;;
11269;SDS011;5692;48.956;9.200;2023-04-01T19:05:51;138.00;;;131.40;;
11269;SDS011;5692;48.956;9.200;2023-04-01T19:08:34;139.80;;;133.10;;
11269;SDS011;5692;48.956;9.200;2023-04-01T19:19:02;115.15;;;109.63;;
11269;SDS011;5692;48.956;9.200;2023-04-01T19:24:16;127.78;;;121.68;;
11269;SDS011;5692;48.956;9.200;2023-04-01T19:50:06;135.38;;;128.88;;
11269;SDS011;5692;48.956;9.200;2023-04-01T19:52:41;123.70;;;117.75;;
11269;SDS011;5692;48.956;9.200;2023-04-01T20:07:52;126.45;;;120.35;;
11269;SDS011;5692;48.956;9.200;2023-04-01T20:10:25;129.63;;;123.43;;
11269;SDS011;5692;48.956;9.200;2023-04-01T20:15:30;126.00;;;119.95;;
11269;SDS011;5692;48.956;9.200;2023-04-01T20:18:17;118.32;;;112.63;;
11269;SDS011;5692;48.956;9.200;2023-04-01T20:20:54;125.32;;;119.32;;
11269;SDS011;5692;48.956;9.200;2023-04-01T20:26:13;127.18;;;121.07;;
11269;SDS011;5692;48.956;9.200;2023-04-01T20:31:31;122.25;;;116.35;;
11269;SDS011;5692;48.956;9.200;2023-04-01T20:36:36;125.45;;;119.45;;
11269;SDS011;5692;48.956;9.200;2023-04-01T20:47:40;120.60;;;114.80;;
11269;SDS011;5692;48.956;9.200;2023-04-01T20:50:18;126.75;;;120.65;;
11269;SDS011;5692;48.956;9.200;2023-04-01T20:53:04;139.00;;;132.30;;
11269;SDS011;5692;48.956;9.200;2023-04-01T21:05:54;132.68;;;126.30;;
11269;SDS011;5692;48.956;9.200;2023-04-01T21:21:13;131.75;;;125.45;;
11269;SDS011;5692;48.956;9.200;2023-04-01T21:37:09;131.52;;;125.22;;
11269;SDS011;5692;48.956;9.200;2023-04-01T21:42:19;141.30;;;134.50;;
11269;SDS011;5692;48.956;9.200;2023-04-01T21:44:58;141.60;;;134.82;;
11269;SDS011;5692;48.956;9.200;2023-04-01T21:52:48;143.93;;;137.02;;
11269;SDS011;5692;48.956;9.200;2023-04-01T21:58:12;129.85;;;123.65;;
11269;SDS011;5692;48.956;9.200;2023-04-01T22:00:52;132.43;;;126.03;;
11269;SDS011;5692;48.956;9.200;2023-04-01T22:03:37;128.95;;;122.75;;
11269;SDS011;5692;48.956;9.200;2023-04-01T22:12:01;134.32;;;127.88;;
11269;SDS011;5692;48.956;9.200;2023-04-01T22:16:58;128.57;;;122.40;;
11269;SDS011;5692;48.956;9.200;2023-04-01T22:19:50;131.15;;;124.85;;
11269;SDS011;5692;48.956;9.200;2023-04-01T22:22:22;134.00;;;127.57;;
11269;SDS011;5692;48.956;9.200;2023-04-01T22:35:06;131.35;;;125.05;;
11269;SDS011;5692;48.956;9.200;2023-04-01T22:40:33;153.93;;;146.55;;
11269;SDS011;5692;48.956;9.200;2023-04-01T22:43:04;134.57;;;128.13;;
11269;SDS011;5692;48.956;9.200;2023-04-01T22:55:40;135.57;;;129.07;;
11269;SDS011;5692;48.956;9.200;2023-04-01T22:58:11;137.95;;;131.35;;
11269;SDS011;5692;48.956;9.200;2023-04-01T23:00:43;142.00;;;135.18;;
11269;SDS011;5692;48.956;9.200;2023-04-01T23:05:46;145.77;;;138.77;;
11269;SDS011;5692;48.956;9.200;2023-04-01T23:10:49;144.00;;;137.10;;
11269;SDS011;5692;48.956;9.200;2023-04-01T23:13:19;144.60;;;137.68;;
11269;SDS011;5692;48.956;9.200;2023-04-01T23:15:46;153.65;;;146.30;;
11269;SDS011;5692;48.956;9.200;2023-04-01T23:23:33;136.65;;;130.10;;
11269;SDS011;5692;48.956;9.200;2023-04-01T23:28:56;136.38;;;129.85;;
11269;SDS011;5692;48.956;9.200;2023-04-01T23:33:54;132.30;;;125.95;;
11269;SDS011;5692;48.956;9.200;2023-04-01T23:36:21;139.52;;;132.82;;
11269;SDS011;5692;48.956;9.200;2023-04-01T23:38:50;136.68;;;130.13;;
11269;SDS011;5692;48.956;9.200;2023-04-01T23:41:17;140.32;;;133.60;;
11269;SDS011;5692;48.956;9.200;2023-04-01T23:43:45;138.30;;;131.70;;
11269;SDS011;5692;48.956;9.200;2023-04-01T23:46:17;146.65;;;139.65;;
11269;SDS011;5692;48.956;9.200;2023-04-01T23:48:43;137.60;;;131.00;;
11269;SDS011;5692;48.956;9.200;2023-04-01T23:51:27;142.10;;;135.27;;
11269;SDS011;5692;48.956;9.200;2023-04-01T23:54:38;141.20;;;134.40;;
11269;SDS011;5692;48.956;9.200;2023-04-01T23:56:45;138.77;;;132.07;;
11269;SDS011;5692;48.956;9.200;2023-04-01T23:59:19;133.80;;;127.40;;
